Time;durP1;ratioP1;P1;durP2;ratioP2;P2;SDS_P1;SDS_P2;PMS_P1;PMS_P2;Temp;Humidity;BMP_temperature;BMP_pressure;BME280_temperature;BME280_humidity;BME280_pressure;Samples;Min_cycle;Max_cycle;Signal;HPM_P1;HPM_P2
2024/01/28 00:00:02;;;;;;;0.60;0.60;;;;;;;1.40;84.12;98443.53;29374;231;63004;-57
2024/01/28 00:00:36;;;;;;;0.60;0.60;;;;;;;1.40;84.17;98443.53;29375;311;63009;-64
2024/01/28 00:01:08;;;;;;;1.20;1.20;;;;;;;1.43;83.97;98443.16;29375;259;63004;-57
2024/01/28 00:01:39;;;;;;;0.70;0.70;;;;;;;1.47;83.83;98441.75;29375;215;63020;-57
2024/01/28 00:02:10;;;;;;;0.62;0.62;;;;;;;1.48;83.51;98435.38;29375;303;63004;-57
2024/01/28 00:02:42;;;;;;;0.60;0.60;;;;;;;1.46;83.78;98434.75;29375;253;63009;-57
2024/01/28 00:03:13;;;;;;;0.60;0.60;;;;;;;1.45;83.86;98441.94;29375;274;63005;-57
2024/01/28 00:03:44;;;;;;;0.60;0.60;;;;;;;1.43;83.67;98438.63;29373;202;63009;-66
2024/01/28 00:04:16;;;;;;;0.60;0.60;;;;;;;1.41;84.05;98438.00;29375;207;63005;-57
2024/01/28 00:04:47;;;;;;;0.60;0.60;;;;;;;1.41;84.00;98429.16;29395;258;64013;-65
2024/01/28 00:05:19;;;;;;;0.70;0.70;;;;;;;1.39;84.36;98431.22;29375;239;63009;-64
2024/01/28 00:05:51;;;;;;;0.60;0.60;;;;;;;1.40;84.46;98435.53;29375;259;63009;-64
2024/01/28 00:06:23;;;;;;;0.70;0.70;;;;;;;1.40;84.27;98432.84;29396;214;63005;-66
2024/01/28 00:06:54;;;;;;;0.60;0.60;;;;;;;1.39;84.54;98431.22;29375;238;63004;-58
2024/01/28 00:07:25;;;;;;;0.68;0.68;;;;;;;1.39;84.65;98432.03;29375;224;63004;-58
2024/01/28 00:07:56;;;;;;;0.60;0.60;;;;;;;1.41;84.57;98429.16;29396;202;63009;-58
2024/01/28 00:08:29;;;;;;;0.70;0.70;;;;;;;1.41;84.64;98426.47;29375;336;63004;-65
2024/01/28 00:09:00;;;;;;;0.60;0.60;;;;;;;1.41;84.71;98429.16;29375;319;63009;-57
2024/01/28 00:09:32;;;;;;;0.60;0.60;;;;;;;1.41;84.80;98429.16;29376;198;63004;-58
2024/01/28 00:10:08;;;;;;;0.70;0.70;;;;;;;1.41;84.52;98431.81;29396;235;64014;-66
2024/01/28 00:10:41;;;;;;;0.70;0.70;;;;;;;1.40;84.69;98435.53;29376;234;63005;-58
2024/01/28 00:11:12;;;;;;;0.70;0.70;;;;;;;1.39;84.94;98431.22;29376;303;63009;-57
2024/01/28 00:11:44;;;;;;;0.70;0.70;;;;;;;1.37;84.76;98431.44;29376;223;63005;-58
2024/01/28 00:12:16;;;;;;;0.60;0.60;;;;;;;1.37;85.12;98438.63;29376;240;63009;-59
2024/01/28 00:12:48;;;;;;;0.70;0.70;;;;;;;1.36;85.12;98436.97;29376;228;63017;-57
2024/01/28 00:13:23;;;;;;;0.70;0.70;;;;;;;1.33;85.70;98439.00;29397;218;63009;-58
2024/01/28 00:13:55;;;;;;;0.60;0.60;;;;;;;1.30;86.18;98439.41;29397;204;63015;-65
2024/01/28 00:14:26;;;;;;;0.70;0.70;;;;;;;1.28;86.43;98436.09;29396;222;64009;-65
2024/01/28 00:14:58;;;;;;;0.68;0.68;;;;;;;1.25;86.61;98441.84;29397;285;63004;-65
2024/01/28 00:15:39;;;;;;;0.60;0.60;;;;;;;1.17;87.33;98436.63;29418;203;64013;-58
2024/01/28 00:16:17;;;;;;;0.80;0.80;;;;;;;1.12;87.81;98447.06;29374;261;64009;-56
2024/01/28 00:16:52;;;;;;;0.70;0.70;;;;;;;1.10;88.48;98443.78;29376;202;63014;-65
2024/01/28 00:17:23;;;;;;;0.70;0.70;;;;;;;1.08;88.19;98442.31;29397;258;63004;-57
2024/01/28 00:17:55;;;;;;;0.70;0.70;;;;;;;1.08;88.66;98444.97;29376;203;63009;-57
2024/01/28 00:18:29;;;;;;;0.70;0.70;;;;;;;1.07;88.79;98438.81;29376;225;63005;-65
2024/01/28 00:19:01;;;;;;;0.70;0.70;;;;;;;1.07;88.79;98433.47;29376;199;63009;-67
2024/01/28 00:19:36;;;;;;;0.60;0.60;;;;;;;1.08;88.76;98427.09;29376;202;63017;-65
2024/01/28 00:20:10;;;;;;;3.08;2.90;;;;;;;1.12;88.62;98424.88;29376;229;63009;-57
2024/01/28 00:20:41;;;;;;;0.70;0.70;;;;;;;1.13;88.51;98432.69;29376;230;63008;-65
2024/01/28 00:21:17;;;;;;;0.57;0.57;;;;;;;1.15;88.40;98425.31;29374;244;64013;-65
2024/01/28 00:21:51;;;;;;;0.60;0.60;;;;;;;1.16;88.54;98420.78;29376;229;63004;-64
2024/01/28 00:22:23;;;;;;;0.60;0.60;;;;;;;1.19;88.39;98428.41;29396;293;63013;-66
2024/01/28 00:22:55;;;;;;;0.68;0.68;;;;;;;1.25;88.17;98430.31;29396;202;63004;-66
2024/01/28 00:23:26;;;;;;;0.60;0.60;;;;;;;1.25;88.17;98432.97;29396;258;63008;-66
2024/01/28 00:23:59;;;;;;;0.60;0.60;;;;;;;1.25;88.49;98424.97;29375;207;63004;-67
2024/01/28 00:24:31;;;;;;;0.60;0.60;;;;;;;1.25;88.47;98423.13;29396;207;63008;-66
2024/01/28 00:25:03;;;;;;;0.70;0.70;;;;;;;1.25;88.48;98419.62;29396;233;63005;-68
2024/01/28 00:25:34;;;;;;;0.60;0.60;;;;;;;1.24;88.28;98424.13;29396;242;63009;-65
2024/01/28 00:26:07;;;;;;;0.60;0.60;;;;;;;1.24;88.30;98424.13;29375;304;63005;-58
2024/01/28 00:26:39;;;;;;;0.60;0.60;;;;;;;1.25;88.21;98422.28;29395;205;64013;-67
2024/01/28 00:27:11;;;;;;;0.60;0.60;;;;;;;1.25;87.97;98420.44;29396;268;63005;-67
2024/01/28 00:27:42;;;;;;;0.60;0.60;;;;;;;1.27;88.33;98423.75;29396;250;63009;-65
2024/01/28 00:28:14;;;;;;;0.60;0.60;;;;;;;1.29;88.00;98427.06;29395;221;64009;-67
2024/01/28 00:28:46;;;;;;;0.60;0.60;;;;;;;1.32;88.09;98417.81;29396;287;63009;-66
2024/01/28 00:29:17;;;;;;;0.70;0.70;;;;;;;1.36;87.62;98420.91;29375;202;63004;-65
2024/01/28 00:29:48;;;;;;;1.02;1.02;;;;;;;1.37;87.70;98422.56;29396;312;63009;-58
2024/01/28 00:30:20;;;;;;;0.70;0.70;;;;;;;1.38;87.51;98418.88;29375;312;63004;-65
2024/01/28 00:30:51;;;;;;;0.60;0.60;;;;;;;1.34;87.24;98416.59;29396;212;63023;-58
2024/01/28 00:31:22;;;;;;;0.60;0.60;;;;;;;1.36;87.70;98420.91;29396;237;63004;-65
2024/01/28 00:31:54;;;;;;;0.60;0.60;;;;;;;1.33;87.62;98420.28;29396;226;63009;-67
2024/01/28 00:32:27;;;;;;;0.60;0.60;;;;;;;1.26;87.74;98422.09;29396;203;63005;-67
2024/01/28 00:32:59;;;;;;;0.60;0.60;;;;;;;1.23;88.10;98422.47;29396;230;63009;-65
2024/01/28 00:33:30;;;;;;;1.35;1.35;;;;;;;1.22;88.03;98420.84;29395;197;64009;-66
2024/01/28 00:34:05;;;;;;;0.60;0.60;;;;;;;1.21;88.12;98424.53;29396;251;63009;-65
2024/01/28 00:34:36;;;;;;;0.60;0.60;;;;;;;1.23;88.00;98425.16;29396;236;63005;-66
2024/01/28 00:35:08;;;;;;;0.80;0.80;;;;;;;1.24;88.08;98424.13;29396;233;63009;-65
2024/01/28 00:35:39;;;;;;;0.65;0.65;;;;;;;1.26;87.70;98424.75;29396;224;63012;-66
2024/01/28 00:36:18;;;;;;;0.70;0.70;;;;;;;1.28;87.84;98429.91;29396;256;63009;-67
2024/01/28 00:36:49;;;;;;;0.60;0.60;;;;;;;1.27;87.89;98415.72;29396;283;63004;-67
2024/01/28 00:37:24;;;;;;;1.12;1.12;;;;;;;1.29;87.67;98421.69;29396;218;63009;-64
2024/01/28 00:37:57;;;;;;;0.62;0.62;;;;;;;1.30;87.38;98423.34;29396;199;63004;-68
2024/01/28 00:38:31;;;;;;;0.60;0.60;;;;;;;1.31;87.76;98424.19;29396;220;63026;-67
2024/01/28 00:39:03;;;;;;;0.60;0.60;;;;;;;1.30;87.50;98420.69;29395;218;64008;-58
2024/01/28 00:39:36;;;;;;;0.70;0.70;;;;;;;1.31;87.41;98419.66;29396;197;63017;-67
2024/01/28 00:40:08;;;;;;;0.60;0.60;;;;;;;1.31;87.50;98425.00;29396;230;63005;-66
2024/01/28 00:40:39;;;;;;;0.70;0.70;;;;;;;1.31;87.47;98417.00;29396;223;63029;-69
2024/01/28 00:41:22;;;;;;;0.50;0.50;;;;;;;1.36;87.20;98419.06;29395;223;64005;-67
2024/01/28 00:41:53;;;;;;;0.68;0.68;;;;;;;1.35;87.32;98414.75;29396;264;63009;-67
2024/01/28 00:42:24;;;;;;;1.15;1.15;;;;;;;1.34;87.04;98416.59;29396;263;63005;-64
2024/01/28 00:42:56;;;;;;;0.60;0.60;;;;;;;1.33;87.22;98422.97;29396;234;63020;-69
2024/01/28 00:43:28;;;;;;;0.70;0.70;;;;;;;1.35;87.14;98414.75;29396;202;63004;-67
2024/01/28 00:44:01;;;;;;;0.60;0.60;;;;;;;1.36;87.40;98420.91;29396;231;63009;-68
2024/01/28 00:44:35;;;;;;;1.30;1.30;;;;;;;1.33;87.50;98417.63;29395;214;64009;-66
2024/01/28 00:45:07;;;;;;;1.60;1.60;;;;;;;1.31;87.31;98414.31;29396;289;63009;-57
2024/01/28 00:45:40;;;;;;;0.70;0.70;;;;;;;1.30;87.39;98418.00;29396;218;63004;-65
2024/01/28 00:46:11;;;;;;;0.70;0.70;;;;;;;1.29;87.66;98419.03;29396;208;63008;-64
2024/01/28 00:46:42;;;;;;;0.70;0.70;;;;;;;1.26;87.61;98411.41;29396;220;63004;-65
2024/01/28 00:47:13;;;;;;;1.52;1.52;;;;;;;1.31;87.83;98414.31;29396;205;63009;-66
2024/01/28 00:47:45;;;;;;;6.72;4.20;;;;;;;1.31;87.65;98417.00;29396;276;63005;-58
2024/01/28 00:48:17;;;;;;;0.62;0.62;;;;;;;1.31;87.79;98411.62;29396;289;63018;-66
2024/01/28 00:48:48;;;;;;;0.68;0.68;;;;;;;1.30;87.72;98406.47;29396;248;63005;-65
2024/01/28 00:49:23;;;;;;;0.70;0.70;;;;;;;1.28;87.81;98404.00;29396;284;63009;-67
2024/01/28 00:49:56;;;;;;;0.70;0.70;;;;;;;1.29;87.84;98405.66;29395;210;64009;-67
2024/01/28 00:50:27;;;;;;;0.60;0.60;;;;;;;1.29;87.92;98402.97;29396;234;63009;-66
2024/01/28 00:50:59;;;;;;;0.70;0.70;;;;;;;1.29;87.74;98411.00;29396;203;63004;-67
2024/01/28 00:51:33;;;;;;;0.60;0.60;;;;;;;1.29;87.80;98405.66;29375;198;63009;-66
2024/01/28 00:52:05;;;;;;;7.37;6.85;;;;;;;1.30;87.73;98401.97;29396;208;63011;-65
2024/01/28 00:52:36;;;;;;;0.70;0.70;;;;;;;1.27;87.83;98402.34;29396;218;63009;-68
2024/01/28 00:53:08;;;;;;;0.60;0.60;;;;;;;1.26;88.13;98403.38;29396;210;63016;-68
2024/01/28 00:53:39;;;;;;;0.70;0.70;;;;;;;1.23;88.62;98401.09;29396;205;63008;-64
2024/01/28 00:54:11;;;;;;;0.70;0.70;;;;;;;1.19;88.61;98405.19;29396;199;63004;-67
2024/01/28 00:54:43;;;;;;;0.70;0.70;;;;;;;1.17;88.78;98407.22;29396;258;63009;-67
2024/01/28 00:55:15;;;;;;;0.95;0.95;;;;;;;1.15;88.71;98403.91;29395;217;64009;-67
2024/01/28 00:55:46;;;;;;;0.70;0.70;;;;;;;1.14;88.86;98402.25;29375;310;63009;-65
2024/01/28 00:56:17;;;;;;;0.70;0.70;;;;;;;1.17;88.64;98404.53;29375;263;63005;-66
2024/01/28 00:56:50;;;;;;;0.90;0.90;;;;;;;1.18;88.90;98398.19;29396;229;63009;-58
2024/01/28 00:57:21;;;;;;;0.70;0.70;;;;;;;1.21;88.78;98402.31;29396;240;63005;-67
2024/01/28 00:57:52;;;;;;;0.70;0.70;;;;;;;1.22;88.82;98404.78;29396;233;63009;-66
2024/01/28 00:58:29;;;;;;;0.65;0.65;;;;;;;1.23;88.65;98401.09;29396;209;63005;-67
2024/01/28 00:59:00;;;;;;;0.60;0.60;;;;;;;1.25;88.62;98393.69;29375;310;63009;-67
2024/01/28 00:59:34;;;;;;;0.60;0.60;;;;;;;1.25;88.63;98393.69;29375;198;63004;-66
2024/01/28 01:00:07;;;;;;;0.70;0.70;;;;;;;1.23;88.62;98395.75;29396;202;63009;-66
2024/01/28 01:00:40;;;;;;;0.60;0.60;;;;;;;1.22;88.48;98402.13;29373;265;64009;-65
2024/01/28 01:01:12;;;;;;;0.68;0.68;;;;;;;1.25;88.69;98399.03;29396;334;63008;-66
2024/01/28 01:01:43;;;;;;;0.90;0.90;;;;;;;1.26;88.35;98395.34;29375;326;63004;-66
2024/01/28 01:02:14;;;;;;;0.60;0.60;;;;;;;1.28;88.45;98398.66;29375;247;63009;-63
2024/01/28 01:02:46;;;;;;;0.60;0.60;;;;;;;1.30;88.03;98399.28;29396;220;63005;-67
2024/01/28 01:03:17;;;;;;;0.70;0.70;;;;;;;1.29;88.21;98399.47;29396;203;63009;-65
2024/01/28 01:03:48;;;;;;;0.68;0.68;;;;;;;1.28;88.02;98393.31;29396;214;63005;-67
2024/01/28 01:04:20;;;;;;;0.62;0.62;;;;;;;1.31;88.15;98398.25;29396;232;63009;-69
2024/01/28 01:04:51;;;;;;;0.60;0.60;;;;;;;1.32;87.91;98393.75;29396;239;63012;-64
2024/01/28 01:05:24;;;;;;;0.62;0.62;;;;;;;1.29;87.87;98386.94;29395;261;64013;-66
2024/01/28 01:05:58;;;;;;;0.70;0.70;;;;;;;1.26;87.72;98395.34;29395;281;64009;-65
2024/01/28 01:06:30;;;;;;;0.60;0.60;;;;;;;1.25;88.19;98393.69;29396;273;63009;-66
2024/01/28 01:07:01;;;;;;;0.70;0.70;;;;;;;1.26;88.24;98390.00;29396;206;63004;-65
2024/01/28 01:07:32;;;;;;;0.80;0.80;;;;;;;1.27;88.14;98391.66;29396;198;63009;-59
2024/01/28 01:08:05;;;;;;;0.62;0.62;;;;;;;1.26;87.85;98391.84;29396;211;63012;-66
2024/01/28 01:08:39;;;;;;;0.60;0.60;;;;;;;1.23;87.76;98385.06;29396;229;63008;-66
2024/01/28 01:09:11;;;;;;;0.60;0.60;;;;;;;1.20;87.91;98390.78;29396;222;63004;-67
2024/01/28 01:09:42;;;;;;;0.65;0.65;;;;;;;1.16;88.69;98394.03;29396;211;63009;-65
2024/01/28 01:10:15;;;;;;;0.60;0.60;;;;;;;1.14;88.51;98388.88;29396;254;63005;-64
2024/01/28 01:10:46;;;;;;;0.70;0.70;;;;;;;1.12;88.81;98388.25;29396;287;63009;-66
2024/01/28 01:11:18;;;;;;;0.70;0.70;;;;;;;1.10;89.02;98384.13;29395;258;64009;-65
2024/01/28 01:11:50;;;;;;;0.60;0.60;;;;;;;1.09;89.16;98394.00;29375;348;63015;-65
2024/01/28 01:12:23;;;;;;;0.60;0.60;;;;;;;1.04;89.64;98391.09;29375;311;63005;-58
2024/01/28 01:12:55;;;;;;;0.70;0.70;;;;;;;1.01;90.03;98386.16;29397;304;63009;-65
2024/01/28 01:13:27;;;;;;;0.70;0.70;;;;;;;0.99;90.35;98378.34;29373;227;64009;-67
2024/01/28 01:13:59;;;;;;;0.60;0.60;;;;;;;0.96;90.34;98383.25;29397;204;63009;-66
2024/01/28 01:14:35;;;;;;;0.62;0.62;;;;;;;0.95;90.15;98381.59;29397;196;63004;-66
2024/01/28 01:15:07;;;;;;;0.60;0.60;;;;;;;0.92;90.29;98381.97;29394;281;64013;-64
2024/01/28 01:15:39;;;;;;;0.60;0.60;;;;;;;0.89;90.42;98380.50;29395;218;63014;-67
2024/01/28 01:16:10;;;;;;;0.70;0.70;;;;;;;0.88;90.81;98383.38;29395;218;63019;-66
2024/01/28 01:16:41;;;;;;;0.70;0.70;;;;;;;0.87;91.14;98384.41;29395;224;63014;-66
2024/01/28 01:17:12;;;;;;;0.70;0.70;;;;;;;0.84;91.15;98377.59;29372;282;64014;-65
2024/01/28 01:17:44;;;;;;;0.70;0.70;;;;;;;0.83;91.20;98378.63;29373;211;63005;-64
2024/01/28 01:18:16;;;;;;;0.70;0.70;;;;;;;0.83;91.25;98375.94;29373;302;63009;-65
2024/01/28 01:18:47;;;;;;;0.70;0.70;;;;;;;0.82;91.26;98370.78;29373;237;63005;-66
2024/01/28 01:19:22;;;;;;;0.68;0.68;;;;;;;0.84;91.40;98374.09;29395;236;63009;-66
2024/01/28 01:19:53;;;;;;;0.60;0.60;;;;;;;0.86;90.98;98377.41;29373;235;63005;-65
2024/01/28 01:20:24;;;;;;;0.70;0.70;;;;;;;0.88;90.90;98370.03;29373;233;63009;-66
2024/01/28 01:20:56;;;;;;;0.60;0.60;;;;;;;0.90;90.80;98373.31;29373;261;63004;-67
2024/01/28 01:21:27;;;;;;;0.70;0.70;;;;;;;0.90;90.41;98367.97;29395;208;63014;-65
2024/01/28 01:22:01;;;;;;;0.60;0.60;;;;;;;0.89;90.19;98372.50;29373;319;63004;-65
2024/01/28 01:22:32;;;;;;;0.70;0.70;;;;;;;0.88;90.62;98367.34;29371;207;64013;-66
2024/01/28 01:23:07;;;;;;;0.65;0.65;;;;;;;0.86;90.76;98367.53;29373;244;63004;-66
2024/01/28 01:23:38;;;;;;;0.70;0.70;;;;;;;0.86;90.70;98369.37;29395;346;63008;-64
2024/01/28 01:24:09;;;;;;;0.62;0.62;;;;;;;0.87;91.05;98369.19;29373;201;63004;-65
2024/01/28 01:24:41;;;;;;;0.60;0.60;;;;;;;0.87;91.08;98369.19;29373;314;63009;-67
2024/01/28 01:25:13;;;;;;;0.70;0.70;;;;;;;0.88;90.74;98370.03;29373;226;63005;-66
2024/01/28 01:25:48;;;;;;;0.70;0.70;;;;;;;0.87;90.84;98369.19;29373;205;63009;-65
2024/01/28 01:26:19;;;;;;;0.65;0.65;;;;;;;0.87;90.94;98368.38;29373;376;63005;-66
2024/01/28 01:26:51;;;;;;;0.70;0.70;;;;;;;0.87;90.97;98371.03;29373;242;63009;-67
2024/01/28 01:27:22;;;;;;;0.60;0.60;;;;;;;0.86;91.11;98366.72;29373;340;63008;-65
2024/01/28 01:27:54;;;;;;;0.70;0.70;;;;;;;0.87;91.21;98368.38;29371;199;64013;-58
2024/01/28 01:28:31;;;;;;;0.60;0.60;;;;;;;0.86;91.31;98364.88;29373;377;63004;-67
2024/01/28 01:29:02;;;;;;;0.60;0.60;;;;;;;0.87;91.24;98373.72;29373;228;63009;-66
2024/01/28 01:29:34;;;;;;;0.60;0.60;;;;;;;0.87;91.00;98371.03;29373;248;63010;-66
2024/01/28 01:30:06;;;;;;;0.65;0.65;;;;;;;0.89;91.25;98371.66;29373;233;63009;-64
2024/01/28 01:30:39;;;;;;;0.70;0.70;;;;;;;0.88;91.17;98370.03;29373;286;63004;-66
2024/01/28 01:31:10;;;;;;;0.60;0.60;;;;;;;0.86;91.12;98362.19;29373;197;63008;-67
2024/01/28 01:31:41;;;;;;;0.70;0.70;;;;;;;0.85;90.77;98365.06;29373;198;63005;-66
2024/01/28 01:32:14;;;;;;;0.70;0.70;;;;;;;0.83;91.09;98369.78;29393;210;64014;-64
2024/01/28 01:32:47;;;;;;;0.80;0.80;;;;;;;0.83;91.19;98367.94;29373;241;63005;-66
2024/01/28 01:33:18;;;;;;;0.60;0.60;;;;;;;0.84;90.89;98376.78;29372;221;63009;-67
2024/01/28 01:33:49;;;;;;;0.70;0.70;;;;;;;0.84;90.72;98372.25;29373;246;63005;-66
2024/01/28 01:34:22;;;;;;;0.70;0.70;;;;;;;0.85;90.91;98370.41;29373;379;63009;-64
2024/01/28 01:34:53;;;;;;;0.70;0.70;;;;;;;0.86;90.85;98369.37;29373;228;63010;-66
2024/01/28 01:35:26;;;;;;;0.70;0.70;;;;;;;0.87;91.12;98368.38;29373;275;63009;-67
2024/01/28 01:35:57;;;;;;;0.70;0.70;;;;;;;0.88;90.81;98365.50;29373;330;63004;-65
2024/01/28 01:36:28;;;;;;;0.70;0.70;;;;;;;0.90;90.96;98368.81;29373;212;63009;-68
2024/01/28 01:37:03;;;;;;;0.70;0.70;;;;;;;0.92;90.56;98371.28;29373;198;63012;-64
2024/01/28 01:37:38;;;;;;;0.70;0.70;;;;;;;0.93;90.27;98372.94;29371;329;64013;-65
2024/01/28 01:38:09;;;;;;;0.60;0.60;;;;;;;0.92;90.11;98376.63;29373;283;63004;-65
2024/01/28 01:38:40;;;;;;;0.60;0.60;;;;;;;0.92;90.38;98366.75;29373;205;63008;-65
2024/01/28 01:39:16;;;;;;;0.65;0.65;;;;;;;0.91;90.21;98369.63;29372;203;63005;-66
2024/01/28 01:39:47;;;;;;;0.70;0.70;;;;;;;0.92;90.34;98368.59;29373;198;63017;-67
2024/01/28 01:40:19;;;;;;;0.60;0.60;;;;;;;0.92;90.07;98365.94;29373;326;63005;-65
2024/01/28 01:40:50;;;;;;;0.70;0.70;;;;;;;0.91;90.35;98370.47;29373;221;63009;-65
2024/01/28 01:41:23;;;;;;;0.70;0.70;;;;;;;0.92;90.12;98365.94;29373;227;63005;-58
2024/01/28 01:41:57;;;;;;;0.65;0.65;;;;;;;0.91;90.23;98369.63;29373;234;63025;-65
2024/01/28 01:42:28;;;;;;;0.70;0.70;;;;;;;0.90;90.00;98368.81;29373;238;63005;-67
2024/01/28 01:43:00;;;;;;;0.70;0.70;;;;;;;0.89;90.23;98366.31;29371;224;64003;-64
2024/01/28 01:43:31;;;;;;;0.60;0.60;;;;;;;0.88;90.05;98365.50;29373;202;63004;-66
2024/01/28 01:44:02;;;;;;;0.60;0.60;;;;;;;0.93;90.21;98362.25;29373;206;63009;-64
2024/01/28 01:44:34;;;;;;;0.68;0.68;;;;;;;0.93;89.78;98359.56;29373;259;63004;-66
2024/01/28 01:45:07;;;;;;;0.65;0.65;;;;;;;0.94;89.97;98366.56;29373;209;63009;-65
2024/01/28 01:45:41;;;;;;;0.70;0.70;;;;;;;0.94;89.93;98363.91;29373;231;63004;-66
2024/01/28 01:46:13;;;;;;;0.70;0.70;;;;;;;0.96;90.11;98360.00;29373;239;63008;-57
2024/01/28 01:46:45;;;;;;;0.70;0.70;;;;;;;0.98;89.75;98365.16;29373;242;63005;-67
2024/01/28 01:47:18;;;;;;;0.60;0.60;;;;;;;0.97;89.90;98360.84;29373;278;63009;-66
2024/01/28 01:47:50;;;;;;;0.60;0.60;;;;;;;0.96;89.75;98357.34;29371;227;64009;-67
2024/01/28 01:48:22;;;;;;;0.70;0.70;;;;;;;0.94;89.78;98354.03;29373;232;63009;-65
2024/01/28 01:48:54;;;;;;;0.60;0.60;;;;;;;0.94;89.68;98355.88;29373;355;63005;-64
2024/01/28 01:49:27;;;;;;;0.60;0.60;;;;;;;0.93;89.97;98356.91;29373;223;63009;-58
2024/01/28 01:50:02;;;;;;;0.60;0.60;;;;;;;0.93;89.87;98362.25;29373;203;63005;-64
2024/01/28 01:50:33;;;;;;;0.68;0.68;;;;;;;0.93;90.14;98357.72;29373;333;63009;-66
2024/01/28 01:51:06;;;;;;;0.65;0.65;;;;;;;0.93;90.05;98359.56;29373;202;63004;-66
2024/01/28 01:51:39;;;;;;;0.70;0.70;;;;;;;0.95;90.04;98360.19;29373;246;63009;-68
2024/01/28 01:52:16;;;;;;;0.62;0.62;;;;;;;0.96;89.89;98357.34;29395;228;63004;-66
2024/01/28 01:52:47;;;;;;;1.17;1.08;;;;;;;0.99;90.16;98356.13;29394;228;64009;-68
2024/01/28 01:53:20;;;;;;;0.70;0.70;;;;;;;1.04;89.89;98353.66;29371;220;64008;-67
2024/01/28 01:53:55;;;;;;;0.70;0.70;;;;;;;1.10;89.51;98357.41;29395;269;63008;-68
2024/01/28 01:54:26;;;;;;;0.60;0.60;;;;;;;1.11;89.01;98354.53;29373;303;63005;-65
2024/01/28 01:54:58;;;;;;;0.60;0.60;;;;;;;1.12;89.17;98345.50;29373;241;63009;-65
2024/01/28 01:55:35;;;;;;;0.60;0.60;;;;;;;1.13;89.12;98352.50;29373;296;63005;-66
2024/01/28 01:56:07;;;;;;;0.60;0.60;;;;;;;1.13;89.02;98357.84;29373;209;63009;-64
2024/01/28 01:56:39;;;;;;;0.60;0.60;;;;;;;1.13;89.02;98355.16;29373;227;63005;-64
2024/01/28 01:57:11;;;;;;;0.70;0.70;;;;;;;1.13;88.99;98352.50;29373;204;63009;-66
2024/01/28 01:57:43;;;;;;;0.70;0.70;;;;;;;1.14;88.98;98354.13;29395;216;63005;-65
2024/01/28 01:58:15;;;;;;;0.60;0.60;;;;;;;1.13;89.13;98347.13;29395;242;63009;-65
2024/01/28 01:58:50;;;;;;;0.60;0.60;;;;;;;1.14;88.83;98348.78;29393;215;64009;-67
2024/01/28 01:59:22;;;;;;;0.60;0.60;;;;;;;1.15;89.12;98339.75;29373;197;63009;-65
2024/01/28 01:59:57;;;;;;;0.60;0.60;;;;;;;1.15;88.65;98347.78;29395;253;63004;-66
2024/01/28 02:00:32;;;;;;;0.70;0.70;;;;;;;1.14;88.98;98343.44;29373;246;63009;-65
2024/01/28 02:01:05;;;;;;;0.70;0.70;;;;;;;1.13;88.80;98347.13;29373;338;63004;-66
2024/01/28 02:01:36;;;;;;;0.60;0.60;;;;;;;1.13;88.95;98351.66;29373;216;63009;-64
2024/01/28 02:02:11;;;;;;;0.70;0.70;;;;;;;1.13;88.85;98347.13;29372;312;64005;-58
2024/01/28 02:02:46;;;;;;;0.62;0.62;;;;;;;1.14;89.20;98343.44;29373;311;63009;-65
2024/01/28 02:03:17;;;;;;;0.70;0.70;;;;;;;1.10;89.11;98339.50;29373;210;63005;-66
2024/01/28 02:03:51;;;;;;;0.60;0.60;;;;;;;1.15;89.20;98349.63;29394;218;64013;-64
2024/01/28 02:04:23;;;;;;;0.60;0.60;;;;;;;1.13;88.92;98347.13;29395;234;63005;-58
2024/01/28 02:04:56;;;;;;;0.60;0.60;;;;;;;1.12;89.36;98342.81;29373;257;63009;-65
2024/01/28 02:05:28;;;;;;;0.65;0.65;;;;;;;1.09;89.43;98345.88;29373;302;63005;-66
2024/01/28 02:06:03;;;;;;;0.60;0.60;;;;;;;1.13;89.47;98352.50;29373;281;63009;-59
2024/01/28 02:06:35;;;;;;;0.60;0.60;;;;;;;1.13;89.46;98355.16;29373;234;63004;-67
2024/01/28 02:07:06;;;;;;;0.60;0.60;;;;;;;1.11;89.38;98343.84;29395;235;63009;-65
2024/01/28 02:07:39;;;;;;;0.60;0.60;;;;;;;1.11;89.36;98353.69;29373;206;63004;-58
2024/01/28 02:08:11;;;;;;;0.65;0.65;;;;;;;1.09;89.83;98348.56;29373;255;63018;-58
2024/01/28 02:08:42;;;;;;;0.60;0.60;;;;;;;1.06;89.66;98351.62;29373;280;63004;-64
2024/01/28 02:09:15;;;;;;;0.70;0.70;;;;;;;1.05;89.92;98355.31;29371;309;64014;-65
2024/01/28 02:09:46;;;;;;;0.60;0.60;;;;;;;1.05;89.95;98349.97;29373;246;63005;-66
2024/01/28 02:10:17;;;;;;;0.60;0.60;;;;;;;1.04;90.12;98342.97;29373;225;63009;-68
2024/01/28 02:10:50;;;;;;;0.60;0.60;;;;;;;1.05;90.27;98349.97;29373;198;63005;-66
2024/01/28 02:11:22;;;;;;;0.70;0.70;;;;;;;1.05;90.23;98355.31;29373;243;63009;-58
2024/01/28 02:11:54;;;;;;;0.70;0.70;;;;;;;1.04;90.09;98353.66;29373;248;63005;-64
2024/01/28 02:12:25;;;;;;;0.70;0.70;;;;;;;1.05;90.41;98357.97;29373;226;63009;-66
2024/01/28 02:13:00;;;;;;;0.70;0.70;;;;;;;1.04;90.25;98356.34;29373;198;63005;-65
2024/01/28 02:13:31;;;;;;;0.70;0.70;;;;;;;1.04;90.41;98359.00;29371;213;64013;-67
2024/01/28 02:14:06;;;;;;;0.60;0.60;;;;;;;1.02;90.24;98357.56;29395;223;63004;-58
2024/01/28 02:14:38;;;;;;;0.60;0.60;;;;;;;1.00;90.68;98353.25;29395;346;63009;-64
2024/01/28 02:15:11;;;;;;;0.70;0.70;;;;;;;0.99;90.70;98353.44;29373;366;63004;-65
2024/01/28 02:15:42;;;;;;;0.70;0.70;;;;;;;0.98;90.82;98354.47;29373;198;63008;-67
2024/01/28 02:16:13;;;;;;;0.70;0.70;;;;;;;0.98;91.02;98352.63;29373;305;63004;-65
2024/01/28 02:16:48;;;;;;;0.70;0.70;;;;;;;0.97;91.13;98353.66;29373;295;63009;-58
2024/01/28 02:17:19;;;;;;;0.60;0.60;;;;;;;0.96;91.46;98353.84;29373;214;63005;-64
2024/01/28 02:17:55;;;;;;;0.70;0.70;;;;;;;0.95;91.55;98352.19;29395;240;63023;-57
2024/01/28 02:18:30;;;;;;;0.70;0.70;;;;;;;0.95;91.58;98349.50;29373;197;63005;-58
2024/01/28 02:19:04;;;;;;;0.70;0.70;;;;;;;0.95;91.59;98350.34;29371;222;64013;-64
2024/01/28 02:19:36;;;;;;;0.70;0.70;;;;;;;0.96;91.33;98353.84;29373;230;63009;-64
2024/01/28 02:20:08;;;;;;;0.60;0.60;;;;;;;0.99;91.68;98356.13;29373;291;63015;-58
2024/01/28 02:20:40;;;;;;;0.70;0.70;;;;;;;1.02;91.32;98362.94;29373;231;63005;-66
2024/01/28 02:21:12;;;;;;;0.60;0.60;;;;;;;1.01;91.20;98354.09;29373;337;63009;-66
2024/01/28 02:21:43;;;;;;;0.70;0.70;;;;;;;1.00;91.03;98357.78;29373;237;63004;-66
2024/01/28 02:22:14;;;;;;;0.70;0.70;;;;;;;1.00;91.42;98349.75;29373;245;63009;-58
2024/01/28 02:22:46;;;;;;;0.70;0.70;;;;;;;1.00;91.46;98360.44;29373;267;63004;-64
2024/01/28 02:23:21;;;;;;;0.70;0.70;;;;;;;1.01;91.58;98354.09;29373;252;63013;-65
2024/01/28 02:23:54;;;;;;;0.60;0.60;;;;;;;1.02;91.29;98361.06;29371;231;64008;-65
2024/01/28 02:24:25;;;;;;;0.70;0.70;;;;;;;1.02;91.21;98350.38;29373;212;63009;-58
2024/01/28 02:24:59;;;;;;;0.60;0.60;;;;;;;1.03;91.19;98360.06;29373;238;63005;-66
2024/01/28 02:25:30;;;;;;;0.70;0.70;;;;;;;1.02;91.55;98358.41;29395;198;63009;-67
2024/01/28 02:26:01;;;;;;;0.62;0.62;;;;;;;1.03;91.23;98356.56;29394;211;64005;-66
2024/01/28 02:26:33;;;;;;;0.60;0.60;;;;;;;1.04;91.52;98358.22;29373;327;63009;-66
2024/01/28 02:27:05;;;;;;;0.60;0.60;;;;;;;1.03;91.63;98352.03;29373;231;63005;-58
2024/01/28 02:27:40;;;;;;;0.60;0.60;;;;;;;1.03;91.54;98352.03;29373;307;63009;-66
2024/01/28 02:28:12;;;;;;;0.70;0.70;;;;;;;1.01;91.45;98359.44;29373;202;63004;-66
2024/01/28 02:28:43;;;;;;;0.70;0.70;;;;;;;1.00;91.43;98355.09;29373;225;63009;-58
2024/01/28 02:29:14;;;;;;;0.70;0.70;;;;;;;0.99;91.57;98350.78;29371;310;64009;-65
2024/01/28 02:29:46;;;;;;;0.70;0.70;;;;;;;0.99;91.60;98351.59;29373;217;63009;-66
2024/01/28 02:30:20;;;;;;;0.70;0.70;;;;;;;1.00;91.47;98353.25;29373;218;63004;-58
2024/01/28 02:30:55;;;;;;;0.70;0.70;;;;;;;1.01;91.74;98348.75;29373;220;63016;-58
2024/01/28 02:31:26;;;;;;;0.60;0.60;;;;;;;1.00;91.45;98347.91;29373;322;63008;-67
2024/01/28 02:32:01;;;;;;;0.68;0.68;;;;;;;1.01;91.82;98346.06;29371;329;64014;-65
2024/01/28 02:32:32;;;;;;;0.60;0.60;;;;;;;1.02;91.54;98347.72;29373;262;63005;-67
2024/01/28 02:33:04;;;;;;;0.60;0.60;;;;;;;1.03;91.41;98341.34;29373;211;63009;-65
2024/01/28 02:33:35;;;;;;;0.70;0.70;;;;;;;1.06;91.34;98340.94;29373;309;63005;-58
2024/01/28 02:34:07;;;;;;;0.60;0.60;;;;;;;1.07;91.56;98333.72;29373;302;63009;-65
2024/01/28 02:34:39;;;;;;;0.70;0.70;;;;;;;1.08;91.24;98338.06;29373;202;63005;-65
2024/01/28 02:35:11;;;;;;;0.68;0.68;;;;;;;1.08;91.44;98338.87;29373;321;63009;-58
2024/01/28 02:35:42;;;;;;;0.70;0.70;;;;;;;1.07;91.20;98337.22;29373;223;63004;-64
2024/01/28 02:36:13;;;;;;;0.70;0.70;;;;;;;1.08;91.51;98336.22;29373;242;63016;-65